sensor_id;sensor_type;location;lat;lon;timestamp;P1;durP1;ratioP1;P2;durP2;ratioP2
18796;SDS011;9526;52.612;13.300;2023-07-20T00:00:06;4.18;;;3.40;;
18796;SDS011;9526;52.612;13.300;2023-07-20T00:02:34;4.03;;;2.97;;
18796;SDS011;9526;52.612;13.300;2023-07-20T00:04:57;3.75;;;2.95;;
18796;SDS011;9526;52.612;13.300;2023-07-20T00:07:21;4.90;;;3.10;;
18796;SDS011;9526;52.612;13.300;2023-07-20T00:09:47;4.70;;;3.30;;
18796;SDS011;9526;52.612;13.300;2023-07-20T00:12:11;5.95;;;3.20;;
18796;SDS011;9526;52.612;13.300;2023-07-20T00:14:35;3.80;;;3.40;;
18796;SDS011;9526;52.612;13.300;2023-07-20T00:16:58;3.92;;;3.38;;
18796;SDS011;9526;52.612;13.300;2023-07-20T00:19:22;3.83;;;3.15;;
18796;SDS011;9526;52.612;13.300;2023-07-20T00:21:47;5.80;;;3.85;;
18796;SDS011;9526;52.612;13.300;2023-07-20T00:24:10;4.32;;;3.20;;
18796;SDS011;9526;52.612;13.300;2023-07-20T00:26:35;3.65;;;2.97;;
18796;SDS011;9526;52.612;13.300;2023-07-20T00:28:59;6.10;;;3.40;;
18796;SDS011;9526;52.612;13.300;2023-07-20T00:31:23;5.93;;;3.47;;
18796;SDS011;9526;52.612;13.300;2023-07-20T00:33:47;6.13;;;3.80;;
18796;SDS011;9526;52.612;13.300;2023-07-20T00:36:11;4.25;;;3.45;;
18796;SDS011;9526;52.612;13.300;2023-07-20T00:38:36;5.70;;;3.00;;
18796;SDS011;9526;52.612;13.300;2023-07-20T00:41:00;4.43;;;3.42;;
18796;SDS011;9526;52.612;13.300;2023-07-20T00:43:25;5.63;;;3.67;;
18796;SDS011;9526;52.612;13.300;2023-07-20T00:45:49;4.70;;;3.45;;
18796;SDS011;9526;52.612;13.300;2023-07-20T00:48:13;3.85;;;2.85;;
18796;SDS011;9526;52.612;13.300;2023-07-20T00:50:37;5.10;;;3.33;;
18796;SDS011;9526;52.612;13.300;2023-07-20T00:53:03;4.15;;;3.47;;
18796;SDS011;9526;52.612;13.300;2023-07-20T00:55:27;4.70;;;3.53;;
18796;SDS011;9526;52.612;13.300;2023-07-20T00:57:51;4.55;;;3.47;;
18796;SDS011;9526;52.612;13.300;2023-07-20T01:00:17;6.35;;;3.72;;
18796;SDS011;9526;52.612;13.300;2023-07-20T01:02:41;8.05;;;3.90;;
18796;SDS011;9526;52.612;13.300;2023-07-20T01:05:05;6.07;;;3.70;;
18796;SDS011;9526;52.612;13.300;2023-07-20T01:07:31;6.13;;;4.32;;
18796;SDS011;9526;52.612;13.300;2023-07-20T01:10:01;5.90;;;3.85;;
18796;SDS011;9526;52.612;13.300;2023-07-20T01:12:42;4.43;;;3.97;;
18796;SDS011;9526;52.612;13.300;2023-07-20T01:15:08;6.00;;;4.10;;
18796;SDS011;9526;52.612;13.300;2023-07-20T01:17:33;5.03;;;3.97;;
18796;SDS011;9526;52.612;13.300;2023-07-20T01:19:57;5.93;;;4.45;;
18796;SDS011;9526;52.612;13.300;2023-07-20T01:22:27;5.65;;;4.45;;
18796;SDS011;9526;52.612;13.300;2023-07-20T01:25:25;8.30;;;4.10;;
18796;SDS011;9526;52.612;13.300;2023-07-20T01:28:12;5.00;;;4.00;;
18796;SDS011;9526;52.612;13.300;2023-07-20T01:30:59;5.72;;;4.13;;
18796;SDS011;9526;52.612;13.300;2023-07-20T01:33:42;5.55;;;4.30;;
18796;SDS011;9526;52.612;13.300;2023-07-20T01:36:10;7.15;;;4.28;;
18796;SDS011;9526;52.612;13.300;2023-07-20T01:38:34;5.93;;;4.40;;
18796;SDS011;9526;52.612;13.300;2023-07-20T01:40:59;4.95;;;4.32;;
18796;SDS011;9526;52.612;13.300;2023-07-20T01:43:22;5.53;;;4.70;;
18796;SDS011;9526;52.612;13.300;2023-07-20T01:45:46;6.63;;;4.95;;
18796;SDS011;9526;52.612;13.300;2023-07-20T01:48:11;6.07;;;5.13;;
18796;SDS011;9526;52.612;13.300;2023-07-20T01:50:36;6.63;;;5.03;;
18796;SDS011;9526;52.612;13.300;2023-07-20T01:53:00;7.72;;;4.82;;
18796;SDS011;9526;52.612;13.300;2023-07-20T01:55:23;7.13;;;5.22;;
18796;SDS011;9526;52.612;13.300;2023-07-20T01:57:48;6.43;;;5.25;;
18796;SDS011;9526;52.612;13.300;2023-07-20T02:00:12;6.00;;;5.32;;
18796;SDS011;9526;52.612;13.300;2023-07-20T02:02:36;9.23;;;5.32;;
18796;SDS011;9526;52.612;13.300;2023-07-20T02:05:02;7.10;;;5.22;;
18796;SDS011;9526;52.612;13.300;2023-07-20T02:07:26;7.68;;;5.20;;
18796;SDS011;9526;52.612;13.300;2023-07-20T02:09:50;7.50;;;5.07;;
18796;SDS011;9526;52.612;13.300;2023-07-20T02:12:14;6.82;;;5.32;;
18796;SDS011;9526;52.612;13.300;2023-07-20T02:14:38;7.57;;;5.18;;
18796;SDS011;9526;52.612;13.300;2023-07-20T02:17:01;6.97;;;5.40;;
18796;SDS011;9526;52.612;13.300;2023-07-20T02:19:25;7.55;;;5.15;;
18796;SDS011;9526;52.612;13.300;2023-07-20T02:21:51;6.82;;;5.47;;
18796;SDS011;9526;52.612;13.300;2023-07-20T02:24:15;10.35;;;6.60;;
18796;SDS011;9526;52.612;13.300;2023-07-20T02:26:38;9.05;;;6.65;;
18796;SDS011;9526;52.612;13.300;2023-07-20T02:29:02;10.32;;;6.57;;
18796;SDS011;9526;52.612;13.300;2023-07-20T02:31:26;8.20;;;6.35;;
18796;SDS011;9526;52.612;13.300;2023-07-20T02:33:50;10.52;;;7.07;;
18796;SDS011;9526;52.612;13.300;2023-07-20T02:36:13;10.93;;;7.25;;
18796;SDS011;9526;52.612;13.300;2023-07-20T02:38:41;9.95;;;7.22;;
18796;SDS011;9526;52.612;13.300;2023-07-20T02:41:05;10.95;;;7.05;;
18796;SDS011;9526;52.612;13.300;2023-07-20T02:43:28;12.95;;;6.97;;
18796;SDS011;9526;52.612;13.300;2023-07-20T02:45:52;10.48;;;7.28;;
18796;SDS011;9526;52.612;13.300;2023-07-20T02:48:16;10.48;;;7.68;;
18796;SDS011;9526;52.612;13.300;2023-07-20T02:50:43;10.00;;;6.88;;
18796;SDS011;9526;52.612;13.300;2023-07-20T02:53:07;11.18;;;7.05;;
18796;SDS011;9526;52.612;13.300;2023-07-20T02:55:32;12.60;;;7.78;;
18796;SDS011;9526;52.612;13.300;2023-07-20T02:57:56;15.55;;;7.93;;
18796;SDS011;9526;52.612;13.300;2023-07-20T03:00:20;10.43;;;7.03;;
18796;SDS011;9526;52.612;13.300;2023-07-20T03:02:44;12.55;;;6.85;;
18796;SDS011;9526;52.612;13.300;2023-07-20T03:05:09;12.43;;;7.47;;
18796;SDS011;9526;52.612;13.300;2023-07-20T03:07:33;12.00;;;7.72;;
18796;SDS011;9526;52.612;13.300;2023-07-20T03:09:56;11.57;;;7.28;;
18796;SDS011;9526;52.612;13.300;2023-07-20T03:12:22;10.52;;;7.07;;
18796;SDS011;9526;52.612;13.300;2023-07-20T03:14:46;14.07;;;7.55;;
18796;SDS011;9526;52.612;13.300;2023-07-20T03:17:09;11.95;;;7.45;;
18796;SDS011;9526;52.612;13.300;2023-07-20T03:19:33;11.00;;;7.60;;
18796;SDS011;9526;52.612;13.300;2023-07-20T03:21:57;10.65;;;6.88;;
18796;SDS011;9526;52.612;13.300;2023-07-20T03:24:21;10.57;;;7.43;;
18796;SDS011;9526;52.612;13.300;2023-07-20T03:26:45;13.18;;;6.72;;
18796;SDS011;9526;52.612;13.300;2023-07-20T03:29:10;11.27;;;7.32;;
18796;SDS011;9526;52.612;13.300;2023-07-20T03:31:34;10.02;;;7.30;;
18796;SDS011;9526;52.612;13.300;2023-07-20T03:33:58;10.48;;;7.25;;
18796;SDS011;9526;52.612;13.300;2023-07-20T03:36:22;12.60;;;8.02;;
18796;SDS011;9526;52.612;13.300;2023-07-20T03:38:46;10.45;;;6.93;;
18796;SDS011;9526;52.612;13.300;2023-07-20T03:41:10;11.07;;;6.88;;
18796;SDS011;9526;52.612;13.300;2023-07-20T03:43:33;13.27;;;7.40;;
18796;SDS011;9526;52.612;13.300;2023-07-20T03:45:58;10.15;;;7.10;;
18796;SDS011;9526;52.612;13.300;2023-07-20T03:48:23;10.68;;;6.85;;
18796;SDS011;9526;52.612;13.300;2023-07-20T03:50:48;11.73;;;7.40;;
18796;SDS011;9526;52.612;13.300;2023-07-20T03:53:14;13.73;;;7.88;;
18796;SDS011;9526;52.612;13.300;2023-07-20T03:55:39;10.90;;;7.38;;
18796;SDS011;9526;52.612;13.300;2023-07-20T03:58:03;12.63;;;8.27;;
18796;SDS011;9526;52.612;13.300;2023-07-20T04:00:26;10.18;;;7.50;;
18796;SDS011;9526;52.612;13.300;2023-07-20T04:02:51;13.88;;;7.50;;
18796;SDS011;9526;52.612;13.300;2023-07-20T04:05:15;11.60;;;6.45;;
18796;SDS011;9526;52.612;13.300;2023-07-20T04:07:39;10.52;;;6.88;;
18796;SDS011;9526;52.612;13.300;2023-07-20T04:10:03;10.60;;;7.15;;
18796;SDS011;9526;52.612;13.300;2023-07-20T04:12:29;11.13;;;7.32;;
18796;SDS011;9526;52.612;13.300;2023-07-20T04:14:52;11.38;;;7.57;;
18796;SDS011;9526;52.612;13.300;2023-07-20T04:17:16;11.77;;;7.20;;
18796;SDS011;9526;52.612;13.300;2023-07-20T04:19:42;9.65;;;6.80;;
18796;SDS011;9526;52.612;13.300;2023-07-20T04:22:06;10.48;;;7.30;;
18796;SDS011;9526;52.612;13.300;2023-07-20T04:24:29;11.93;;;6.88;;
18796;SDS011;9526;52.612;13.300;2023-07-20T04:26:53;9.30;;;7.10;;
18796;SDS011;9526;52.612;13.300;2023-07-20T04:29:17;9.15;;;6.63;;
18796;SDS011;9526;52.612;13.300;2023-07-20T04:31:40;9.48;;;7.05;;
18796;SDS011;9526;52.612;13.300;2023-07-20T04:34:05;9.10;;;6.72;;
18796;SDS011;9526;52.612;13.300;2023-07-20T04:36:31;10.40;;;6.90;;
18796;SDS011;9526;52.612;13.300;2023-07-20T04:38:55;8.43;;;6.57;;
18796;SDS011;9526;52.612;13.300;2023-07-20T04:41:18;7.75;;;5.95;;
18796;SDS011;9526;52.612;13.300;2023-07-20T04:43:44;9.57;;;7.00;;
18796;SDS011;9526;52.612;13.300;2023-07-20T04:46:12;9.85;;;6.70;;
18796;SDS011;9526;52.612;13.300;2023-07-20T04:48:37;9.88;;;6.55;;
18796;SDS011;9526;52.612;13.300;2023-07-20T04:51:02;10.02;;;6.38;;
18796;SDS011;9526;52.612;13.300;2023-07-20T04:53:27;6.60;;;5.47;;
18796;SDS011;9526;52.612;13.300;2023-07-20T04:55:52;8.70;;;6.32;;
18796;SDS011;9526;52.612;13.300;2023-07-20T04:58:18;9.70;;;5.93;;
18796;SDS011;9526;52.612;13.300;2023-07-20T05:00:42;8.77;;;6.22;;
18796;SDS011;9526;52.612;13.300;2023-07-20T05:03:06;9.40;;;6.53;;
18796;SDS011;9526;52.612;13.300;2023-07-20T05:05:29;8.93;;;6.25;;
18796;SDS011;9526;52.612;13.300;2023-07-20T05:07:53;7.43;;;5.70;;
18796;SDS011;9526;52.612;13.300;2023-07-20T05:10:19;11.05;;;6.85;;
18796;SDS011;9526;52.612;13.300;2023-07-20T05:12:42;9.45;;;6.28;;
18796;SDS011;9526;52.612;13.300;2023-07-20T05:15:06;11.35;;;6.10;;
18796;SDS011;9526;52.612;13.300;2023-07-20T05:17:33;7.40;;;5.97;;
18796;SDS011;9526;52.612;13.300;2023-07-20T05:19:57;8.95;;;6.20;;
18796;SDS011;9526;52.612;13.300;2023-07-20T05:22:21;8.18;;;6.20;;
18796;SDS011;9526;52.612;13.300;2023-07-20T05:24:46;8.50;;;6.03;;
18796;SDS011;9526;52.612;13.300;2023-07-20T05:27:11;9.77;;;6.65;;
18796;SDS011;9526;52.612;13.300;2023-07-20T05:29:35;13.77;;;6.22;;
18796;SDS011;9526;52.612;13.300;2023-07-20T05:31:58;7.60;;;5.97;;
18796;SDS011;9526;52.612;13.300;2023-07-20T05:34:22;8.65;;;5.82;;
18796;SDS011;9526;52.612;13.300;2023-07-20T05:36:46;8.15;;;5.80;;
18796;SDS011;9526;52.612;13.300;2023-07-20T05:39:09;8.52;;;5.72;;
18796;SDS011;9526;52.612;13.300;2023-07-20T05:41:33;8.27;;;5.78;;
18796;SDS011;9526;52.612;13.300;2023-07-20T05:43:58;7.63;;;5.80;;
18796;SDS011;9526;52.612;13.300;2023-07-20T05:46:22;6.63;;;5.38;;
18796;SDS011;9526;52.612;13.300;2023-07-20T05:48:48;6.30;;;5.03;;
18796;SDS011;9526;52.612;13.300;2023-07-20T05:51:12;6.28;;;5.07;;
18796;SDS011;9526;52.612;13.300;2023-07-20T05:53:37;6.43;;;5.00;;
18796;SDS011;9526;52.612;13.300;2023-07-20T05:56:01;6.32;;;5.22;;
18796;SDS011;9526;52.612;13.300;2023-07-20T05:58:25;7.70;;;5.30;;
18796;SDS011;9526;52.612;13.300;2023-07-20T06:00:50;7.15;;;5.65;;
18796;SDS011;9526;52.612;13.300;2023-07-20T06:03:14;7.15;;;5.47;;
18796;SDS011;9526;52.612;13.300;2023-07-20T06:05:38;6.13;;;4.80;;
18796;SDS011;9526;52.612;13.300;2023-07-20T06:08:02;6.13;;;4.55;;
18796;SDS011;9526;52.612;13.300;2023-07-20T06:10:26;5.25;;;3.60;;
18796;SDS011;9526;52.612;13.300;2023-07-20T06:12:49;4.93;;;4.05;;
18796;SDS011;9526;52.612;13.300;2023-07-20T06:15:25;6.35;;;4.28;;
18796;SDS011;9526;52.612;13.300;2023-07-20T06:17:53;4.50;;;3.63;;
18796;SDS011;9526;52.612;13.300;2023-07-20T06:20:17;5.78;;;3.90;;
18796;SDS011;9526;52.612;13.300;2023-07-20T06:22:41;6.03;;;3.25;;
18796;SDS011;9526;52.612;13.300;2023-07-20T06:25:05;3.55;;;3.00;;
18796;SDS011;9526;52.612;13.300;2023-07-20T06:27:29;3.25;;;2.92;;
18796;SDS011;9526;52.612;13.300;2023-07-20T06:29:53;4.80;;;3.22;;
18796;SDS011;9526;52.612;13.300;2023-07-20T06:32:16;4.10;;;3.13;;
18796;SDS011;9526;52.612;13.300;2023-07-20T06:34:41;3.63;;;2.65;;
18796;SDS011;9526;52.612;13.300;2023-07-20T06:37:05;3.97;;;2.70;;
18796;SDS011;9526;52.612;13.300;2023-07-20T06:39:29;12.55;;;2.60;;
18796;SDS011;9526;52.612;13.300;2023-07-20T06:41:56;3.45;;;2.83;;
18796;SDS011;9526;52.612;13.300;2023-07-20T06:44:19;3.33;;;2.67;;
18796;SDS011;9526;52.612;13.300;2023-07-20T06:46:43;2.50;;;2.13;;
18796;SDS011;9526;52.612;13.300;2023-07-20T06:49:06;3.40;;;2.30;;
18796;SDS011;9526;52.612;13.300;2023-07-20T06:51:34;2.22;;;2.00;;
18796;SDS011;9526;52.612;13.300;2023-07-20T06:53:58;2.50;;;2.30;;
18796;SDS011;9526;52.612;13.300;2023-07-20T06:56:22;4.88;;;2.45;;
18796;SDS011;9526;52.612;13.300;2023-07-20T06:58:47;2.65;;;2.17;;
18796;SDS011;9526;52.612;13.300;2023-07-20T07:01:11;2.58;;;2.30;;
18796;SDS011;9526;52.612;13.300;2023-07-20T07:03:34;3.70;;;2.00;;
18796;SDS011;9526;52.612;13.300;2023-07-20T07:06:00;2.80;;;2.08;;
18796;SDS011;9526;52.612;13.300;2023-07-20T07:08:25;1.98;;;1.73;;
18796;SDS011;9526;52.612;13.300;2023-07-20T07:10:49;3.00;;;1.88;;
18796;SDS011;9526;52.612;13.300;2023-07-20T07:13:13;2.00;;;1.50;;
18796;SDS011;9526;52.612;13.300;2023-07-20T07:15:38;3.67;;;1.48;;
18796;SDS011;9526;52.612;13.300;2023-07-20T07:18:03;2.75;;;1.63;;
18796;SDS011;9526;52.612;13.300;2023-07-20T07:20:26;2.35;;;1.40;;
18796;SDS011;9526;52.612;13.300;2023-07-20T07:22:50;1.52;;;1.42;;
18796;SDS011;9526;52.612;13.300;2023-07-20T07:25:16;2.35;;;1.40;;
18796;SDS011;9526;52.612;13.300;2023-07-20T07:27:44;2.63;;;1.40;;
18796;SDS011;9526;52.612;13.300;2023-07-20T07:30:08;2.70;;;1.50;;
18796;SDS011;9526;52.612;13.300;2023-07-20T07:32:32;1.70;;;1.13;;
18796;SDS011;9526;52.612;13.300;2023-07-20T07:34:56;3.42;;;1.55;;
18796;SDS011;9526;52.612;13.300;2023-07-20T07:37:22;1.50;;;1.40;;
18796;SDS011;9526;52.612;13.300;2023-07-20T07:39:45;2.25;;;1.33;;
18796;SDS011;9526;52.612;13.300;2023-07-20T07:42:10;1.23;;;1.13;;
18796;SDS011;9526;52.612;13.300;2023-07-20T07:44:34;3.33;;;1.38;;
18796;SDS011;9526;52.612;13.300;2023-07-20T07:46:58;2.28;;;1.10;;
18796;SDS011;9526;52.612;13.300;2023-07-20T07:49:22;1.50;;;1.17;;
18796;SDS011;9526;52.612;13.300;2023-07-20T07:51:46;1.45;;;1.23;;
18796;SDS011;9526;52.612;13.300;2023-07-20T07:54:10;1.13;;;1.08;;
18796;SDS011;9526;52.612;13.300;2023-07-20T07:56:33;2.15;;;1.20;;
18796;SDS011;9526;52.612;13.300;2023-07-20T07:58:58;1.75;;;1.40;;
18796;SDS011;9526;52.612;13.300;2023-07-20T08:01:22;1.15;;;1.00;;
18796;SDS011;9526;52.612;13.300;2023-07-20T08:03:46;1.15;;;1.00;;
18796;SDS011;9526;52.612;13.300;2023-07-20T08:06:09;1.00;;;0.90;;
18796;SDS011;9526;52.612;13.300;2023-07-20T08:08:35;1.35;;;1.00;;
18796;SDS011;9526;52.612;13.300;2023-07-20T08:10:58;1.25;;;1.00;;
18796;SDS011;9526;52.612;13.300;2023-07-20T08:13:28;1.33;;;0.82;;
18796;SDS011;9526;52.612;13.300;2023-07-20T08:15:53;0.70;;;0.70;;
18796;SDS011;9526;52.612;13.300;2023-07-20T08:18:17;4.10;;;0.80;;
18796;SDS011;9526;52.612;13.300;2023-07-20T08:20:43;0.68;;;0.68;;
18796;SDS011;9526;52.612;13.300;2023-07-20T08:23:07;1.90;;;0.80;;
18796;SDS011;9526;52.612;13.300;2023-07-20T08:25:31;0.95;;;0.80;;
18796;SDS011;9526;52.612;13.300;2023-07-20T08:27:54;0.60;;;0.60;;
18796;SDS011;9526;52.612;13.300;2023-07-20T08:30:20;0.70;;;0.70;;
18796;SDS011;9526;52.612;13.300;2023-07-20T08:32:47;0.80;;;0.70;;
18796;SDS011;9526;52.612;13.300;2023-07-20T08:35:10;0.60;;;0.60;;
18796;SDS011;9526;52.612;13.300;2023-07-20T08:37:36;1.52;;;0.80;;
18796;SDS011;9526;52.612;13.300;2023-07-20T08:40:00;0.68;;;0.63;;
18796;SDS011;9526;52.612;13.300;2023-07-20T08:42:25;1.08;;;0.82;;
18796;SDS011;9526;52.612;13.300;2023-07-20T08:44:50;0.70;;;0.68;;
18796;SDS011;9526;52.612;13.300;2023-07-20T08:47:17;0.60;;;0.60;;
18796;SDS011;9526;52.612;13.300;2023-07-20T08:49:42;0.70;;;0.70;;
18796;SDS011;9526;52.612;13.300;2023-07-20T08:52:07;0.95;;;0.63;;
18796;SDS011;9526;52.612;13.300;2023-07-20T08:54:31;1.40;;;0.80;;
18796;SDS011;9526;52.612;13.300;2023-07-20T08:56:55;0.65;;;0.65;;
18796;SDS011;9526;52.612;13.300;2023-07-20T08:59:20;0.65;;;0.65;;
18796;SDS011;9526;52.612;13.300;2023-07-20T09:01:47;1.05;;;0.80;;
18796;SDS011;9526;52.612;13.300;2023-07-20T09:04:13;0.60;;;0.60;;
18796;SDS011;9526;52.612;13.300;2023-07-20T09:06:39;1.23;;;0.68;;
18796;SDS011;9526;52.612;13.300;2023-07-20T09:09:06;0.65;;;0.65;;
18796;SDS011;9526;52.612;13.300;2023-07-20T09:11:30;0.60;;;0.60;;
18796;SDS011;9526;52.612;13.300;2023-07-20T09:14:04;0.77;;;0.77;;
18796;SDS011;9526;52.612;13.300;2023-07-20T09:16:28;0.65;;;0.65;;
18796;SDS011;9526;52.612;13.300;2023-07-20T09:18:52;1.75;;;0.60;;
18796;SDS011;9526;52.612;13.300;2023-07-20T09:21:16;0.60;;;0.60;;
18796;SDS011;9526;52.612;13.300;2023-07-20T09:23:43;0.77;;;0.73;;
18796;SDS011;9526;52.612;13.300;2023-07-20T09:26:11;0.68;;;0.68;;
18796;SDS011;9526;52.612;13.300;2023-07-20T09:28:41;1.10;;;0.80;;
18796;SDS011;9526;52.612;13.300;2023-07-20T09:31:15;1.83;;;0.70;;
18796;SDS011;9526;52.612;13.300;2023-07-20T09:33:40;0.70;;;0.70;;
18796;SDS011;9526;52.612;13.300;2023-07-20T09:36:22;0.80;;;0.80;;
18796;SDS011;9526;52.612;13.300;2023-07-20T09:39:07;1.00;;;0.90;;
18796;SDS011;9526;52.612;13.300;2023-07-20T09:41:39;1.98;;;0.70;;
18796;SDS011;9526;52.612;13.300;2023-07-20T09:44:07;2.35;;;0.75;;
18796;SDS011;9526;52.612;13.300;2023-07-20T09:46:41;1.00;;;0.90;;
18796;SDS011;9526;52.612;13.300;2023-07-20T09:49:08;0.77;;;0.70;;
18796;SDS011;9526;52.612;13.300;2023-07-20T09:51:35;0.70;;;0.70;;
18796;SDS011;9526;52.612;13.300;2023-07-20T09:53:59;0.82;;;0.55;;
18796;SDS011;9526;52.612;13.300;2023-07-20T09:56:26;1.23;;;0.75;;
18796;SDS011;9526;52.612;13.300;2023-07-20T09:58:51;1.20;;;0.68;;
18796;SDS011;9526;52.612;13.300;2023-07-20T10:01:15;0.73;;;0.70;;
18796;SDS011;9526;52.612;13.300;2023-07-20T10:03:46;0.70;;;0.70;;
18796;SDS011;9526;52.612;13.300;2023-07-20T10:06:15;1.23;;;0.65;;
18796;SDS011;9526;52.612;13.300;2023-07-20T10:08:44;1.05;;;0.70;;
18796;SDS011;9526;52.612;13.300;2023-07-20T10:11:13;0.70;;;0.55;;
18796;SDS011;9526;52.612;13.300;2023-07-20T10:13:40;0.80;;;0.80;;
18796;SDS011;9526;52.612;13.300;2023-07-20T10:16:07;1.10;;;0.70;;
18796;SDS011;9526;52.612;13.300;2023-07-20T10:18:35;0.68;;;0.68;;
18796;SDS011;9526;52.612;13.300;2023-07-20T10:21:06;0.70;;;0.70;;
18796;SDS011;9526;52.612;13.300;2023-07-20T10:23:33;0.60;;;0.60;;
18796;SDS011;9526;52.612;13.300;2023-07-20T10:25:57;0.90;;;0.77;;
18796;SDS011;9526;52.612;13.300;2023-07-20T10:28:21;0.57;;;0.57;;
18796;SDS011;9526;52.612;13.300;2023-07-20T10:30:48;0.95;;;0.75;;
18796;SDS011;9526;52.612;13.300;2023-07-20T10:33:11;0.60;;;0.60;;
18796;SDS011;9526;52.612;13.300;2023-07-20T10:35:50;0.70;;;0.70;;
18796;SDS011;9526;52.612;13.300;2023-07-20T10:38:14;2.20;;;0.60;;
18796;SDS011;9526;52.612;13.300;2023-07-20T10:40:38;0.40;;;0.40;;
18796;SDS011;9526;52.612;13.300;2023-07-20T10:43:03;0.50;;;0.50;;
18796;SDS011;9526;52.612;13.300;2023-07-20T10:45:36;0.68;;;0.60;;
18796;SDS011;9526;52.612;13.300;2023-07-20T10:48:04;0.68;;;0.60;;
18796;SDS011;9526;52.612;13.300;2023-07-20T10:50:29;0.50;;;0.50;;
18796;SDS011;9526;52.612;13.300;2023-07-20T10:53:04;0.50;;;0.50;;
18796;SDS011;9526;52.612;13.300;2023-07-20T10:55:33;0.60;;;0.57;;
18796;SDS011;9526;52.612;13.300;2023-07-20T10:58:06;0.70;;;0.55;;
18796;SDS011;9526;52.612;13.300;2023-07-20T11:00:32;0.65;;;0.50;;
18796;SDS011;9526;52.612;13.300;2023-07-20T11:02:55;0.55;;;0.50;;
18796;SDS011;9526;52.612;13.300;2023-07-20T11:05:35;0.93;;;0.50;;
18796;SDS011;9526;52.612;13.300;2023-07-20T11:08:03;1.95;;;0.40;;
18796;SDS011;9526;52.612;13.300;2023-07-20T11:10:28;0.30;;;0.30;;
18796;SDS011;9526;52.612;13.300;2023-07-20T11:15:44;1.05;;;0.55;;
18796;SDS011;9526;52.612;13.300;2023-07-20T11:18:10;0.43;;;0.43;;
18796;SDS011;9526;52.612;13.300;2023-07-20T11:20:37;0.45;;;0.45;;
18796;SDS011;9526;52.612;13.300;2023-07-20T11:23:01;0.50;;;0.40;;
18796;SDS011;9526;52.612;13.300;2023-07-20T11:25:25;0.50;;;0.50;;
18796;SDS011;9526;52.612;13.300;2023-07-20T11:27:59;0.38;;;0.38;;
18796;SDS011;9526;52.612;13.300;2023-07-20T11:30:23;0.70;;;0.40;;
18796;SDS011;9526;52.612;13.300;2023-07-20T11:32:47;0.85;;;0.30;;
18796;SDS011;9526;52.612;13.300;2023-07-20T11:35:12;1.45;;;0.50;;
18796;SDS011;9526;52.612;13.300;2023-07-20T11:37:37;0.40;;;0.32;;
18796;SDS011;9526;52.612;13.300;2023-07-20T11:40:04;1.52;;;0.70;;
18796;SDS011;9526;52.612;13.300;2023-07-20T11:42:29;0.55;;;0.50;;
18796;SDS011;9526;52.612;13.300;2023-07-20T11:44:56;0.77;;;0.50;;
18796;SDS011;9526;52.612;13.300;2023-07-20T11:47:22;2.50;;;0.60;;
18796;SDS011;9526;52.612;13.300;2023-07-20T11:49:51;0.88;;;0.50;;
18796;SDS011;9526;52.612;13.300;2023-07-20T11:52:16;1.05;;;0.50;;
18796;SDS011;9526;52.612;13.300;2023-07-20T11:54:42;0.88;;;0.57;;
18796;SDS011;9526;52.612;13.300;2023-07-20T11:57:15;1.50;;;0.40;;
18796;SDS011;9526;52.612;13.300;2023-07-20T11:59:39;2.17;;;0.47;;
18796;SDS011;9526;52.612;13.300;2023-07-20T12:02:19;0.45;;;0.45;;
18796;SDS011;9526;52.612;13.300;2023-07-20T12:04:43;0.63;;;0.63;;
18796;SDS011;9526;52.612;13.300;2023-07-20T12:07:07;0.60;;;0.60;;
18796;SDS011;9526;52.612;13.300;2023-07-20T12:09:31;2.15;;;0.60;;
18796;SDS011;9526;52.612;13.300;2023-07-20T12:12:13;1.33;;;0.60;;
18796;SDS011;9526;52.612;13.300;2023-07-20T12:14:37;0.75;;;0.60;;
18796;SDS011;9526;52.612;13.300;2023-07-20T12:17:00;0.60;;;0.60;;
18796;SDS011;9526;52.612;13.300;2023-07-20T12:19:25;0.60;;;0.60;;
18796;SDS011;9526;52.612;13.300;2023-07-20T12:21:48;1.15;;;0.52;;
18796;SDS011;9526;52.612;13.300;2023-07-20T12:24:12;1.95;;;0.73;;
18796;SDS011;9526;52.612;13.300;2023-07-20T12:26:36;2.35;;;0.82;;
18796;SDS011;9526;52.612;13.300;2023-07-20T12:29:01;0.80;;;0.68;;
18796;SDS011;9526;52.612;13.300;2023-07-20T12:31:26;0.95;;;0.60;;
18796;SDS011;9526;52.612;13.300;2023-07-20T12:33:51;4.57;;;0.80;;
18796;SDS011;9526;52.612;13.300;2023-07-20T12:36:16;0.90;;;0.60;;
18796;SDS011;9526;52.612;13.300;2023-07-20T12:38:41;0.50;;;0.50;;
18796;SDS011;9526;52.612;13.300;2023-07-20T12:41:05;0.63;;;0.40;;
18796;SDS011;9526;52.612;13.300;2023-07-20T12:43:28;1.15;;;0.60;;
18796;SDS011;9526;52.612;13.300;2023-07-20T12:45:55;0.63;;;0.40;;
18796;SDS011;9526;52.612;13.300;2023-07-20T12:48:19;0.60;;;0.60;;
18796;SDS011;9526;52.612;13.300;2023-07-20T12:50:42;1.10;;;0.60;;
18796;SDS011;9526;52.612;13.300;2023-07-20T12:53:06;0.55;;;0.50;;
18796;SDS011;9526;52.612;13.300;2023-07-20T12:55:30;1.70;;;0.45;;
18796;SDS011;9526;52.612;13.300;2023-07-20T12:57:54;0.43;;;0.43;;
18796;SDS011;9526;52.612;13.300;2023-07-20T13:00:18;0.50;;;0.50;;
18796;SDS011;9526;52.612;13.300;2023-07-20T13:02:45;0.47;;;0.47;;
18796;SDS011;9526;52.612;13.300;2023-07-20T13:05:09;1.02;;;0.45;;
18796;SDS011;9526;52.612;13.300;2023-07-20T13:07:33;0.88;;;0.50;;
18796;SDS011;9526;52.612;13.300;2023-07-20T13:10:01;0.35;;;0.35;;
18796;SDS011;9526;52.612;13.300;2023-07-20T13:12:26;0.40;;;0.40;;
18796;SDS011;9526;52.612;13.300;2023-07-20T13:14:49;0.50;;;0.50;;
18796;SDS011;9526;52.612;13.300;2023-07-20T13:17:13;0.38;;;0.38;;
18796;SDS011;9526;52.612;13.300;2023-07-20T13:19:38;0.80;;;0.50;;
18796;SDS011;9526;52.612;13.300;2023-07-20T13:22:02;0.40;;;0.40;;
18796;SDS011;9526;52.612;13.300;2023-07-20T13:24:26;1.17;;;0.43;;
18796;SDS011;9526;52.612;13.300;2023-07-20T13:26:50;0.40;;;0.40;;
18796;SDS011;9526;52.612;13.300;2023-07-20T13:29:14;0.40;;;0.40;;
18796;SDS011;9526;52.612;13.300;2023-07-20T13:31:38;1.98;;;0.60;;
18796;SDS011;9526;52.612;13.300;2023-07-20T13:34:03;0.40;;;0.40;;
18796;SDS011;9526;52.612;13.300;2023-07-20T13:36:30;0.65;;;0.45;;
18796;SDS011;9526;52.612;13.300;2023-07-20T13:38:57;1.08;;;0.50;;
18796;SDS011;9526;52.612;13.300;2023-07-20T13:41:21;0.50;;;0.50;;
18796;SDS011;9526;52.612;13.300;2023-07-20T13:43:45;1.90;;;0.50;;
18796;SDS011;9526;52.612;13.300;2023-07-20T13:46:09;0.80;;;0.47;;
18796;SDS011;9526;52.612;13.300;2023-07-20T13:48:37;0.73;;;0.32;;
18796;SDS011;9526;52.612;13.300;2023-07-20T13:51:02;1.27;;;0.60;;
18796;SDS011;9526;52.612;13.300;2023-07-20T13:53:27;0.40;;;0.40;;
18796;SDS011;9526;52.612;13.300;2023-07-20T13:55:54;1.67;;;0.45;;
18796;SDS011;9526;52.612;13.300;2023-07-20T13:58:21;0.60;;;0.50;;
18796;SDS011;9526;52.612;13.300;2023-07-20T14:00:45;0.50;;;0.50;;
18796;SDS011;9526;52.612;13.300;2023-07-20T14:03:08;0.65;;;0.45;;
18796;SDS011;9526;52.612;13.300;2023-07-20T14:05:35;0.82;;;0.50;;
18796;SDS011;9526;52.612;13.300;2023-07-20T14:08:01;0.40;;;0.40;;
18796;SDS011;9526;52.612;13.300;2023-07-20T14:10:26;0.65;;;0.32;;
18796;SDS011;9526;52.612;13.300;2023-07-20T14:12:50;0.50;;;0.40;;
18796;SDS011;9526;52.612;13.300;2023-07-20T14:15:14;0.50;;;0.50;;
18796;SDS011;9526;52.612;13.300;2023-07-20T14:17:38;0.68;;;0.40;;
18796;SDS011;9526;52.612;13.300;2023-07-20T14:20:02;0.50;;;0.50;;
18796;SDS011;9526;52.612;13.300;2023-07-20T14:22:42;0.88;;;0.70;;
18796;SDS011;9526;52.612;13.300;2023-07-20T14:25:07;0.75;;;0.50;;
18796;SDS011;9526;52.612;13.300;2023-07-20T14:27:32;0.70;;;0.60;;
18796;SDS011;9526;52.612;13.300;2023-07-20T14:29:58;2.60;;;0.68;;
18796;SDS011;9526;52.612;13.300;2023-07-20T14:32:22;0.50;;;0.50;;
18796;SDS011;9526;52.612;13.300;2023-07-20T14:34:47;1.02;;;0.40;;
18796;SDS011;9526;52.612;13.300;2023-07-20T14:37:11;0.95;;;0.55;;